This is the latest recevied weather packets stored in our database for station/object KEOD. If no packets are shown the sender has not sent any weather packets the latest 1 day(s).
| Time | Temp. | Humidity | Pressure | Rain* | Wind** | Luminosity | Snow |
|---|---|---|---|---|---|---|---|
| 1778037811 | 17.78° C | 88% | 1007.8 hPa | - | 4.47 m/s, 190° | - | - |
| 1778037208 | 17.78° C | 88% | 1007.8 hPa | - | 4.47 m/s, 190° | - | - |
| 1778036606 | 17.78° C | 88% | 1007.8 hPa | - | 4.47 m/s, 190° | - | - |
| 1778036007 | 17.78° C | 88% | 1007.8 hPa | - | 4.02 m/s, 190° | - | - |
| 1778035407 | 17.78° C | 88% | 1007.8 hPa | - | 4.47 m/s, 190° | - | - |
| 1778034806 | 16.67° C | 93% | 1007.5 hPa | - | 1.34 m/s, 180° | - | - |
| 1778034209 | 16.67° C | 93% | 1007.5 hPa | - | 1.34 m/s, 180° | - | - |
| 1778033608 | 16.67° C | 93% | 1007.5 hPa | - | 1.34 m/s, 180° | - | - |
| 1778033009 | 16.67° C | 93% | 1007.5 hPa | - | 1.34 m/s, 180° | - | - |
| 1778032409 | 17.78° C | 93% | 1008.1 hPa | - | 2.68 m/s, 200° | - | - |
| 1778031808 | 17.78° C | 93% | 1008.1 hPa | - | 2.68 m/s, 200° | - | - |
| 1778031209 | 17.78° C | 93% | 1008.1 hPa | - | 2.68 m/s, 200° | - | - |
| 1778030607 | 17.78° C | 93% | 1007.8 hPa | - | 2.68 m/s, 190° | - | - |
| 1778030009 | 17.78° C | 93% | 1007.8 hPa | - | 2.68 m/s, 190° | - | - |
| 1778029407 | 17.78° C | 93% | 1007.8 hPa | - | 2.68 m/s, 190° | - | - |
| 1778028810 | 17.78° C | 88% | 1008.1 hPa | - | 2.68 m/s, 190° | - | - |
| 1778028208 | 17.78° C | 88% | 1008.1 hPa | - | 2.68 m/s, 190° | - | - |
| 1778027607 | 17.78° C | 88% | 1008.5 hPa | - | 2.24 m/s, 190° | - | - |
| 1778027006 | 16.67° C | 88% | 1008.5 hPa | - | 2.24 m/s, 190° | - | - |
| 1778026412 | 16.67° C | 88% | 1008.5 hPa | - | 2.24 m/s, 190° | - | - |
| 1778025810 | 16.67° C | 88% | 1008.5 hPa | - | 2.24 m/s, 190° | - | - |
| 1778025211 | 16.67° C | 88% | 1008.5 hPa | - | 1.79 m/s, 190° | - | - |
| 1778024606 | 16.67° C | 88% | 1008.5 hPa | - | 1.79 m/s, 190° | - | - |
| 1778024010 | 16.67° C | 88% | 1008.5 hPa | - | 1.79 m/s, 190° | - | - |
| 1778023411 | 16.67° C | 88% | 1008.5 hPa | - | 2.24 m/s, 190° | - | - |
* Rain since midnight (hover to see other rain measurements)
** Current wind speed in m/s (hover to see current wind gust speed)